Time;durP1;ratioP1;P1;durP2;ratioP2;P2;SDS_P1;SDS_P2;PMS_P1;PMS_P2;Temp;Humidity;BMP_temperature;BMP_pressure;BME280_temperature;BME280_humidity;BME280_pressure;Samples;Min_cycle;Max_cycle;Signal;HPM_P1;HPM_P2
2023/07/22 00:02:24;;;;;;;0.80;0.77;;;15.20;99.90;;;;;;5032992;28;20814;-80
2023/07/22 00:04:52;;;;;;;0.80;0.70;;;15.20;99.90;;;;;;5034491;28;20454;-80
2023/07/22 00:07:19;;;;;;;2.13;0.80;;;15.20;99.90;;;;;;5036541;28;20544;-79
2023/07/22 00:09:45;;;;;;;1.57;1.07;;;15.20;99.90;;;;;;5036496;28;20957;-80
2023/07/22 00:12:12;;;;;;;0.57;0.57;;;15.20;99.90;;;;;;5036661;28;20483;-80
2023/07/22 00:14:42;;;;;;;0.97;0.90;;;15.20;99.90;;;;;;5036647;28;20478;-80
2023/07/22 00:17:09;;;;;;;1.17;1.00;;;15.10;99.90;;;;;;5036480;28;20973;-80
2023/07/22 00:19:36;;;;;;;0.50;0.50;;;15.10;99.90;;;;;;5036584;28;20446;-80
2023/07/22 00:22:03;;;;;;;0.70;0.70;;;15.10;99.90;;;;;;5036192;28;20991;-80
2023/07/22 00:24:30;;;;;;;1.30;0.63;;;15.10;99.90;;;;;;5036485;28;20447;-79
2023/07/22 00:26:57;;;;;;;1.50;0.80;;;15.00;99.90;;;;;;5036030;28;20486;-80
2023/07/22 00:29:23;;;;;;;1.20;0.87;;;15.10;99.90;;;;;;5036250;28;20478;-80
2023/07/22 00:31:52;;;;;;;0.90;0.70;;;15.00;99.90;;;;;;5036593;28;20482;-80
2023/07/22 00:34:19;;;;;;;0.67;0.67;;;15.00;99.90;;;;;;5036248;28;20486;-79
2023/07/22 00:36:47;;;;;;;1.50;0.90;;;15.00;99.90;;;;;;5036255;28;20810;-80
2023/07/22 00:39:14;;;;;;;2.00;0.90;;;14.90;99.90;;;;;;5036445;28;20447;-80
2023/07/22 00:41:43;;;;;;;0.60;0.60;;;15.10;99.90;;;;;;5036094;28;20470;-80
2023/07/22 00:44:10;;;;;;;1.40;0.90;;;15.00;99.90;;;;;;5036143;28;20454;-80
2023/07/22 00:46:37;;;;;;;3.20;0.80;;;15.00;99.90;;;;;;5036107;28;20538;-79
2023/07/22 00:49:07;;;;;;;1.13;0.97;;;15.00;99.90;;;;;;5036037;28;20446;-79
2023/07/22 00:51:34;;;;;;;0.50;0.50;;;14.90;99.90;;;;;;5036170;28;20474;-80
2023/07/22 00:54:00;;;;;;;0.90;0.77;;;14.90;99.90;;;;;;5035941;28;20446;-80
2023/07/22 00:56:27;;;;;;;4.53;0.90;;;14.90;99.90;;;;;;5035931;28;20455;-80
2023/07/22 00:58:54;;;;;;;1.23;0.70;;;14.80;99.90;;;;;;5036144;28;20447;-79
2023/07/22 01:01:21;;;;;;;0.80;0.70;;;14.70;99.90;;;;;;5035788;28;20462;-79
2023/07/22 01:03:48;;;;;;;0.93;0.80;;;14.70;99.90;;;;;;5035605;28;20497;-79
2023/07/22 01:06:17;;;;;;;2.33;0.70;;;14.70;99.90;;;;;;5035752;28;20810;-79
2023/07/22 01:08:44;;;;;;;0.97;0.97;;;14.70;99.90;;;;;;5035704;28;20486;-79
2023/07/22 01:11:12;;;;;;;1.80;0.70;;;14.70;99.90;;;;;;5035805;28;20466;-79
2023/07/22 01:13:39;;;;;;;1.47;0.83;;;14.70;99.90;;;;;;5035334;28;20942;-79
2023/07/22 01:16:06;;;;;;;1.47;0.80;;;14.70;99.90;;;;;;5034261;28;21072;-79
2023/07/22 01:18:34;;;;;;;0.70;0.70;;;14.70;99.90;;;;;;5035528;28;20442;-82
2023/07/22 01:21:00;;;;;;;3.50;1.10;;;14.70;99.90;;;;;;5035336;28;20487;-82
2023/07/22 01:23:29;;;;;;;0.70;0.70;;;14.80;99.90;;;;;;5035112;28;20439;-81
2023/07/22 01:25:57;;;;;;;0.63;0.63;;;14.70;99.90;;;;;;5035039;28;20474;-82
2023/07/22 01:28:23;;;;;;;1.73;1.07;;;14.70;99.90;;;;;;5035013;28;20451;-82
2023/07/22 01:30:50;;;;;;;1.20;1.00;;;14.70;99.90;;;;;;5035215;28;20474;-81
2023/07/22 01:33:17;;;;;;;2.80;1.00;;;14.80;99.90;;;;;;5035439;28;20451;-81
2023/07/22 01:35:43;;;;;;;1.00;0.77;;;14.70;99.90;;;;;;5034864;28;21036;-81
2023/07/22 01:38:10;;;;;;;1.70;1.10;;;14.70;99.90;;;;;;5035169;28;20453;-81
2023/07/22 01:40:39;;;;;;;0.70;0.70;;;14.70;99.90;;;;;;5035145;28;20466;-80
2023/07/22 01:43:05;;;;;;;3.93;0.73;;;14.70;99.90;;;;;;5035063;28;20450;-80
2023/07/22 01:45:32;;;;;;;2.20;1.30;;;14.70;99.90;;;;;;5035437;28;20788;-80
2023/07/22 01:47:59;;;;;;;1.33;0.80;;;14.70;99.90;;;;;;5034956;28;20450;-80
2023/07/22 01:50:25;;;;;;;0.50;0.50;;;14.60;99.90;;;;;;5035117;28;20481;-80
2023/07/22 01:52:52;;;;;;;1.10;1.00;;;14.60;99.90;;;;;;5034623;28;20947;-79
2023/07/22 01:55:19;;;;;;;1.63;0.90;;;14.60;99.90;;;;;;5034452;28;21069;-79
2023/07/22 01:57:47;;;;;;;1.80;1.10;;;14.50;99.90;;;;;;5034754;28;20446;-79
2023/07/22 02:00:15;;;;;;;0.77;0.77;;;14.60;99.90;;;;;;5034602;28;20450;-78
2023/07/22 02:02:42;;;;;;;2.80;0.93;;;14.50;99.90;;;;;;5034725;28;20443;-78
2023/07/22 02:05:10;;;;;;;1.17;1.00;;;14.60;99.90;;;;;;5034789;28;20454;-78
2023/07/22 02:07:37;;;;;;;1.00;0.80;;;14.50;99.90;;;;;;5034294;28;20958;-82
2023/07/22 02:10:04;;;;;;;1.00;0.90;;;14.70;99.90;;;;;;5034506;28;20473;-82
2023/07/22 02:12:30;;;;;;;1.30;0.90;;;14.60;99.90;;;;;;5034514;28;20465;-82
2023/07/22 02:14:59;;;;;;;0.90;0.73;;;14.50;99.90;;;;;;5034359;28;20842;-82
2023/07/22 02:17:25;;;;;;;1.47;1.20;;;14.50;99.90;;;;;;5034104;28;20446;-82
2023/07/22 02:19:53;;;;;;;0.60;0.60;;;14.50;99.90;;;;;;5034356;28;20454;-79
2023/07/22 02:22:19;;;;;;;1.33;0.80;;;14.50;99.90;;;;;;5034186;28;20474;-79
2023/07/22 02:24:46;;;;;;;1.10;0.80;;;14.50;99.90;;;;;;5034047;28;20465;-79
2023/07/22 02:27:14;;;;;;;0.90;0.60;;;14.50;99.90;;;;;;5033879;28;20907;-80
2023/07/22 02:29:40;;;;;;;2.70;1.00;;;14.40;99.90;;;;;;5033853;28;20970;-80
2023/07/22 02:32:09;;;;;;;2.20;1.17;;;14.40;99.90;;;;;;5034058;28;20467;-80
2023/07/22 02:34:37;;;;;;;1.27;0.67;;;14.40;99.90;;;;;;5033965;28;20461;-80
2023/07/22 02:37:04;;;;;;;1.23;0.70;;;14.40;99.90;;;;;;5033753;28;20947;-80
2023/07/22 02:39:31;;;;;;;1.10;1.00;;;14.40;99.90;;;;;;5033736;28;20456;-82
2023/07/22 02:41:57;;;;;;;1.80;0.70;;;14.40;99.90;;;;;;5033912;28;20467;-82
2023/07/22 02:44:24;;;;;;;0.90;0.77;;;14.30;99.90;;;;;;5033665;28;20440;-82
2023/07/22 02:46:51;;;;;;;1.33;0.90;;;14.30;99.90;;;;;;5033588;28;20445;-82
2023/07/22 02:49:19;;;;;;;0.80;0.80;;;14.30;99.90;;;;;;5033837;28;20451;-82
2023/07/22 02:51:46;;;;;;;1.73;0.93;;;14.30;99.90;;;;;;5033734;28;20502;-82
2023/07/22 02:54:13;;;;;;;1.43;0.80;;;14.20;99.90;;;;;;5033753;28;20527;-81
2023/07/22 02:56:41;;;;;;;1.30;0.80;;;14.20;99.90;;;;;;5033948;28;20482;-82
2023/07/22 02:59:08;;;;;;;1.17;1.00;;;14.20;99.90;;;;;;5033701;28;20505;-82
2023/07/22 03:01:35;;;;;;;1.50;0.90;;;14.20;99.90;;;;;;5033635;28;20892;-82
2023/07/22 03:04:02;;;;;;;0.70;0.70;;;14.20;99.90;;;;;;5033295;28;20447;-82
2023/07/22 03:06:31;;;;;;;1.40;0.73;;;14.10;99.90;;;;;;5033571;28;20438;-82
2023/07/22 03:08:58;;;;;;;0.60;0.60;;;14.10;99.90;;;;;;5033522;28;20481;-79
2023/07/22 03:11:26;;;;;;;1.27;1.07;;;14.10;99.90;;;;;;5033094;28;20529;-79
2023/07/22 03:13:53;;;;;;;0.70;0.70;;;14.10;99.90;;;;;;5033462;28;20461;-79
2023/07/22 03:16:20;;;;;;;2.33;1.17;;;14.00;99.90;;;;;;5033073;28;20475;-79
2023/07/22 03:18:47;;;;;;;1.17;0.73;;;14.10;99.90;;;;;;5033164;28;20449;-79
2023/07/22 03:21:13;;;;;;;0.80;0.70;;;14.10;99.90;;;;;;5033613;28;20471;-79
2023/07/22 03:23:42;;;;;;;0.93;0.70;;;14.10;99.90;;;;;;5033087;28;20940;-81
2023/07/22 03:26:08;;;;;;;1.40;1.10;;;14.10;99.90;;;;;;5032728;28;20490;-82
2023/07/22 03:28:35;;;;;;;0.73;0.60;;;14.00;99.90;;;;;;5033354;28;20504;-82
2023/07/22 03:31:02;;;;;;;2.20;1.30;;;14.00;99.90;;;;;;5033189;28;20482;-82
2023/07/22 03:33:28;;;;;;;1.50;1.40;;;14.00;99.90;;;;;;5033227;28;20534;-82
2023/07/22 03:35:55;;;;;;;0.70;0.70;;;13.90;99.90;;;;;;5033143;28;20493;-82
2023/07/22 03:38:22;;;;;;;2.37;1.03;;;13.90;99.90;;;;;;5033229;28;20454;-79
2023/07/22 03:40:52;;;;;;;1.00;1.00;;;13.90;99.90;;;;;;5036720;28;20467;-79
2023/07/22 03:43:19;;;;;;;1.37;0.90;;;14.00;99.90;;;;;;5037453;28;20443;-79
2023/07/22 03:45:46;;;;;;;1.23;0.90;;;13.90;99.90;;;;;;5037232;28;20458;-79
2023/07/22 03:48:13;;;;;;;1.33;0.73;;;13.90;99.90;;;;;;5037194;28;20443;-79
2023/07/22 03:50:39;;;;;;;1.73;0.70;;;13.90;99.90;;;;;;5037084;28;20474;-79
2023/07/22 03:53:06;;;;;;;1.10;1.00;;;13.90;99.90;;;;;;5036744;28;20446;-79
2023/07/22 03:55:33;;;;;;;1.43;1.33;;;13.90;99.90;;;;;;5036958;28;20486;-79
2023/07/22 03:58:01;;;;;;;1.53;0.70;;;13.90;99.90;;;;;;5036719;28;20808;-79
2023/07/22 04:00:27;;;;;;;1.23;1.10;;;13.90;99.90;;;;;;5036959;28;20470;-79
2023/07/22 04:02:54;;;;;;;5.83;0.80;;;13.90;99.90;;;;;;5037212;28;20449;-79
2023/07/22 04:05:21;;;;;;;0.90;0.73;;;13.90;99.90;;;;;;5036865;28;20438;-79
2023/07/22 04:07:48;;;;;;;0.70;0.70;;;13.90;99.90;;;;;;5036533;28;20438;-79
2023/07/22 04:10:13;;;;;;;0.70;0.70;;;13.90;99.90;;;;;;5036432;28;20566;-79
2023/07/22 04:12:40;;;;;;;0.97;0.97;;;14.00;99.90;;;;;;5036385;28;20602;-80
2023/07/22 04:15:09;;;;;;;1.53;0.70;;;14.00;99.90;;;;;;5036381;28;20668;-80
2023/07/22 04:17:36;;;;;;;1.17;1.10;;;14.00;99.90;;;;;;5036445;28;20434;-81
2023/07/22 04:20:03;;;;;;;0.90;0.73;;;14.10;99.90;;;;;;5036534;28;20454;-80
2023/07/22 04:22:30;;;;;;;1.13;1.03;;;14.10;99.90;;;;;;5036568;28;20457;-80
2023/07/22 04:24:57;;;;;;;1.43;0.70;;;14.20;99.90;;;;;;5036370;28;20500;-80
2023/07/22 04:27:24;;;;;;;2.10;1.13;;;14.20;99.90;;;;;;5036451;28;20431;-78
2023/07/22 04:29:51;;;;;;;0.70;0.63;;;14.20;99.90;;;;;;5036693;28;20462;-78
2023/07/22 04:32:19;;;;;;;0.90;0.80;;;14.20;99.90;;;;;;5036687;28;20911;-79
2023/07/22 04:34:45;;;;;;;1.27;0.73;;;14.30;99.90;;;;;;5036189;28;20972;-79
2023/07/22 04:37:12;;;;;;;1.07;0.80;;;14.30;99.90;;;;;;5036049;28;20477;-79
2023/07/22 04:39:39;;;;;;;0.60;0.60;;;14.40;99.90;;;;;;5035992;28;20977;-81
2023/07/22 04:42:07;;;;;;;1.27;1.13;;;14.40;99.90;;;;;;5035869;28;20834;-80
2023/07/22 04:44:33;;;;;;;0.70;0.70;;;14.50;99.90;;;;;;5036085;28;20826;-80
2023/07/22 04:47:00;;;;;;;0.70;0.60;;;14.50;99.90;;;;;;5036119;28;20450;-81
2023/07/22 04:49:28;;;;;;;1.50;0.73;;;14.50;99.90;;;;;;5036081;28;20446;-80
2023/07/22 04:51:55;;;;;;;1.37;0.70;;;14.50;99.90;;;;;;5034317;28;20473;-81
2023/07/22 04:54:22;;;;;;;1.13;0.70;;;14.60;99.90;;;;;;5035814;28;20867;-80
2023/07/22 04:56:49;;;;;;;0.90;0.70;;;14.60;99.90;;;;;;5035885;28;20485;-79
2023/07/22 04:59:16;;;;;;;1.33;1.03;;;14.70;99.90;;;;;;5036278;28;20458;-79
2023/07/22 05:01:43;;;;;;;0.80;0.80;;;14.70;99.90;;;;;;5035792;28;20521;-79
2023/07/22 05:04:10;;;;;;;1.30;1.00;;;14.80;99.90;;;;;;5035453;28;20852;-79
2023/07/22 05:06:38;;;;;;;1.10;0.83;;;14.90;99.90;;;;;;5035700;28;20442;-79
2023/07/22 05:09:05;;;;;;;1.53;0.90;;;14.90;99.90;;;;;;5035701;28;20446;-80
2023/07/22 05:11:32;;;;;;;2.10;0.83;;;14.90;99.90;;;;;;5035629;28;20474;-79
2023/07/22 05:13:58;;;;;;;0.70;0.70;;;15.00;99.90;;;;;;5035469;28;20439;-80
2023/07/22 05:16:25;;;;;;;0.83;0.83;;;15.10;99.90;;;;;;5035734;28;20479;-80
2023/07/22 05:18:52;;;;;;;1.47;0.90;;;15.10;99.90;;;;;;5035554;28;20449;-81
2023/07/22 05:21:18;;;;;;;1.80;0.90;;;15.20;99.90;;;;;;5035674;28;20474;-80
2023/07/22 05:23:47;;;;;;;0.57;0.57;;;15.30;99.90;;;;;;5035568;28;20455;-80
2023/07/22 05:26:13;;;;;;;1.90;0.73;;;15.40;99.90;;;;;;5034941;28;20983;-80
2023/07/22 05:28:40;;;;;;;0.80;0.60;;;15.40;99.90;;;;;;5035019;28;20454;-80
2023/07/22 05:31:07;;;;;;;1.07;0.97;;;15.50;99.90;;;;;;5035253;28;20471;-81
2023/07/22 05:33:34;;;;;;;2.10;0.70;;;15.60;99.90;;;;;;5035489;28;20937;-81
2023/07/22 05:36:00;;;;;;;0.83;0.83;;;15.70;99.90;;;;;;5034838;28;20486;-81
2023/07/22 05:38:27;;;;;;;0.80;0.63;;;15.80;99.90;;;;;;5035175;28;20455;-81
2023/07/22 05:40:55;;;;;;;1.90;1.10;;;15.90;99.90;;;;;;5035060;28;20466;-79
2023/07/22 05:43:22;;;;;;;1.00;0.80;;;15.80;99.90;;;;;;5035374;28;20439;-79
2023/07/22 05:45:49;;;;;;;2.83;0.80;;;16.00;99.90;;;;;;5035550;28;20447;-79
2023/07/22 05:48:16;;;;;;;0.80;0.80;;;16.10;99.90;;;;;;5034639;28;20959;-80
2023/07/22 05:50:43;;;;;;;2.03;0.83;;;16.10;99.90;;;;;;5034906;28;20467;-80
2023/07/22 05:53:10;;;;;;;1.87;1.10;;;16.10;99.90;;;;;;5034880;28;20457;-80
2023/07/22 05:55:36;;;;;;;0.93;0.90;;;16.20;99.90;;;;;;5034998;28;20439;-81
2023/07/22 05:58:06;;;;;;;1.60;0.63;;;16.30;99.90;;;;;;5034827;28;20454;-80
2023/07/22 06:00:33;;;;;;;0.70;0.60;;;16.40;99.90;;;;;;5034403;28;20504;-80
2023/07/22 06:03:00;;;;;;;0.73;0.70;;;16.40;99.90;;;;;;5034327;28;20951;-81
2023/07/22 06:05:26;;;;;;;1.17;0.87;;;16.50;99.90;;;;;;5034639;28;20450;-81
2023/07/22 06:07:54;;;;;;;0.93;0.60;;;16.60;99.90;;;;;;5034569;28;20935;-80
2023/07/22 06:10:21;;;;;;;1.83;0.70;;;16.70;99.90;;;;;;5034496;28;20558;-81
2023/07/22 06:12:47;;;;;;;0.90;0.90;;;16.90;99.90;;;;;;5034501;28;20454;-80
2023/07/22 06:15:16;;;;;;;1.13;0.80;;;16.90;99.90;;;;;;5034468;28;20451;-81
2023/07/22 06:17:42;;;;;;;1.03;0.90;;;17.00;99.90;;;;;;5034369;28;20486;-80
2023/07/22 06:20:10;;;;;;;2.37;0.90;;;17.20;99.90;;;;;;5034301;28;20455;-80
2023/07/22 06:22:37;;;;;;;1.23;0.60;;;17.30;99.90;;;;;;5034017;28;20957;-81
2023/07/22 06:25:05;;;;;;;0.90;0.80;;;17.50;99.90;;;;;;5034059;28;20478;-80
2023/07/22 06:27:31;;;;;;;1.67;1.47;;;17.60;99.90;;;;;;5034054;28;20427;-81
2023/07/22 06:29:59;;;;;;;1.43;1.10;;;17.70;99.90;;;;;;5034031;28;20438;-80
2023/07/22 06:32:29;;;;;;;1.37;1.10;;;17.80;99.90;;;;;;5034014;28;20517;-80
2023/07/22 06:34:56;;;;;;;0.97;0.80;;;18.00;99.90;;;;;;5033656;28;20467;-80
2023/07/22 06:37:24;;;;;;;2.57;1.00;;;18.20;99.90;;;;;;5033676;28;20482;-80
2023/07/22 06:39:50;;;;;;;0.80;0.60;;;18.30;99.90;;;;;;5033816;28;20442;-80
2023/07/22 06:42:17;;;;;;;2.40;1.13;;;18.50;99.90;;;;;;5034060;28;20760;-80
2023/07/22 06:44:44;;;;;;;0.70;0.70;;;18.70;99.90;;;;;;5033739;28;20469;-81
2023/07/22 06:47:11;;;;;;;1.13;1.03;;;18.90;99.90;;;;;;5033410;28;20505;-80
2023/07/22 06:49:39;;;;;;;1.00;0.70;;;19.00;99.90;;;;;;5033420;28;20942;-81
2023/07/22 06:52:07;;;;;;;1.00;0.83;;;19.20;99.90;;;;;;5033680;28;20473;-81
2023/07/22 06:54:34;;;;;;;1.23;0.90;;;19.30;99.90;;;;;;5033737;28;20443;-80
2023/07/22 06:57:00;;;;;;;2.30;1.07;;;19.50;99.90;;;;;;5033344;28;20577;-81
2023/07/22 06:59:27;;;;;;;0.80;0.60;;;19.70;99.90;;;;;;5033424;28;20953;-80
2023/07/22 07:01:54;;;;;;;0.63;0.60;;;19.80;99.90;;;;;;5033308;28;20467;-81
2023/07/22 07:04:21;;;;;;;1.43;0.83;;;20.00;99.90;;;;;;5033327;28;20951;-80
2023/07/22 07:06:49;;;;;;;1.70;0.60;;;20.20;99.90;;;;;;5033501;28;20446;-80
2023/07/22 07:09:16;;;;;;;1.13;0.77;;;20.40;99.90;;;;;;5033238;28;20435;-80
2023/07/22 07:11:42;;;;;;;0.70;0.70;;;20.50;99.90;;;;;;5033424;28;20462;-80
2023/07/22 07:14:09;;;;;;;1.27;1.07;;;20.60;99.90;;;;;;5032715;28;20451;-81
2023/07/22 07:16:36;;;;;;;0.80;0.70;;;20.70;99.90;;;;;;5033380;28;20484;-81
2023/07/22 07:19:03;;;;;;;1.67;0.60;;;20.90;99.90;;;;;;5033421;28;20458;-81
2023/07/22 07:21:30;;;;;;;1.30;0.63;;;21.10;99.90;;;;;;5033348;28;21000;-81
2023/07/22 07:23:58;;;;;;;0.90;0.60;;;21.10;99.90;;;;;;5033373;28;20794;-81
2023/07/22 07:26:25;;;;;;;1.43;0.80;;;21.10;99.90;;;;;;5032816;28;20482;-81
2023/07/22 07:28:54;;;;;;;1.83;0.80;;;21.20;99.90;;;;;;5033224;28;20454;-81
2023/07/22 07:31:20;;;;;;;1.50;0.93;;;21.30;99.90;;;;;;5032919;28;21004;-81
2023/07/22 07:33:47;;;;;;;0.70;0.70;;;21.40;99.90;;;;;;5033039;28;20438;-81
2023/07/22 07:36:14;;;;;;;0.80;0.77;;;21.60;99.90;;;;;;5033287;28;20446;-81
2023/07/22 07:38:41;;;;;;;1.60;0.60;;;21.80;99.90;;;;;;5032903;28;20833;-81
2023/07/22 07:41:12;;;;;;;0.87;0.83;;;22.00;99.90;;;;;;5033098;28;20837;-81
2023/07/22 07:43:39;;;;;;;0.70;0.70;;;22.00;99.90;;;;;;5033180;28;20442;-81
2023/07/22 07:46:20;;;;;;;1.07;0.67;;;22.00;99.90;;;;;;5032828;28;20968;-81
2023/07/22 07:48:48;;;;;;;0.80;0.80;;;22.10;99.90;;;;;;5033166;28;20442;-82
2023/07/22 07:51:16;;;;;;;2.20;0.77;;;22.30;99.90;;;;;;5032834;28;20840;-81
2023/07/22 07:53:43;;;;;;;0.50;0.50;;;22.30;99.90;;;;;;5032798;28;20457;-81
2023/07/22 07:56:12;;;;;;;1.33;1.10;;;22.40;99.90;;;;;;5032690;28;20984;-79
2023/07/22 07:58:39;;;;;;;1.13;0.90;;;22.50;99.90;;;;;;5033196;28;20450;-81
2023/07/22 08:01:07;;;;;;;0.90;0.90;;;22.60;99.90;;;;;;5032714;28;20458;-81
2023/07/22 08:03:35;;;;;;;1.33;1.20;;;22.90;99.90;;;;;;5032951;28;20441;-81
2023/07/22 08:06:02;;;;;;;0.80;0.80;;;23.00;99.90;;;;;;5032667;28;20934;-81
2023/07/22 08:08:29;;;;;;;1.00;0.77;;;23.10;99.90;;;;;;5033010;28;20438;-81
2023/07/22 08:11:00;;;;;;;1.27;0.73;;;23.30;99.90;;;;;;5032903;28;20469;-81
2023/07/22 08:13:31;;;;;;;0.60;0.57;;;23.40;99.90;;;;;;5032995;28;20344;-81
2023/07/22 08:15:58;;;;;;;0.90;0.70;;;23.50;99.90;;;;;;5033478;28;20214;-81
2023/07/22 08:18:25;;;;;;;0.90;0.70;;;23.70;99.90;;;;;;5032768;28;20733;-82
2023/07/22 08:20:54;;;;;;;0.73;0.70;;;23.90;99.90;;;;;;5032893;28;20234;-81
2023/07/22 08:23:21;;;;;;;3.63;0.77;;;23.90;99.90;;;;;;5032853;28;20198;-81
2023/07/22 08:25:49;;;;;;;1.27;0.80;;;24.00;99.90;;;;;;5034270;28;20223;-82
2023/07/22 08:28:16;;;;;;;0.60;0.60;;;24.00;99.90;;;;;;5036572;28;20199;-82
2023/07/22 08:30:45;;;;;;;0.80;0.80;;;24.00;99.90;;;;;;5036376;28;20224;-81
2023/07/22 08:33:12;;;;;;;1.02;0.65;;;24.10;99.90;;;;;;5036067;28;20199;-82
2023/07/22 08:35:40;;;;;;;0.80;0.65;;;24.20;99.90;;;;;;5036386;28;20204;-81
2023/07/22 08:38:07;;;;;;;0.50;0.50;;;24.20;99.90;;;;;;5036211;28;20242;-81
2023/07/22 08:40:34;;;;;;;0.90;0.82;;;24.40;99.90;;;;;;5035933;28;20586;-81
2023/07/22 08:43:02;;;;;;;0.60;0.60;;;24.40;99.90;;;;;;5035961;28;20609;-82
2023/07/22 08:45:34;;;;;;;0.82;0.60;;;24.10;99.90;;;;;;5036167;28;20206;-81
2023/07/22 08:48:06;;;;;;;1.27;0.82;;;24.00;99.90;;;;;;5036127;28;20253;-81
2023/07/22 08:50:37;;;;;;;0.80;0.60;;;23.90;99.90;;;;;;5036156;28;20234;-81
2023/07/22 08:53:05;;;;;;;0.70;0.63;;;24.10;99.90;;;;;;5036861;28;20215;-81
2023/07/22 08:55:31;;;;;;;1.00;0.80;;;24.10;99.90;;;;;;5039372;28;20204;-81
2023/07/22 08:57:59;;;;;;;0.70;0.70;;;24.00;99.90;;;;;;5035935;28;20227;-81
2023/07/22 09:00:28;;;;;;;2.00;0.70;;;23.90;99.30;;;;;;5035839;28;20231;-81
2023/07/22 09:02:55;;;;;;;0.70;0.60;;;23.80;98.20;;;;;;5036290;28;20207;-81
2023/07/22 09:05:23;;;;;;;3.47;0.93;;;23.60;98.00;;;;;;5035527;28;20195;-81
2023/07/22 09:07:51;;;;;;;0.70;0.60;;;23.50;98.70;;;;;;5035415;28;20690;-81
2023/07/22 09:10:19;;;;;;;0.70;0.47;;;23.40;99.10;;;;;;5035369;28;20675;-81
2023/07/22 09:12:46;;;;;;;1.53;0.70;;;23.40;97.70;;;;;;5035487;28;20210;-81
2023/07/22 09:15:14;;;;;;;0.70;0.60;;;23.40;99.40;;;;;;5035677;28;20210;-80
2023/07/22 09:17:41;;;;;;;0.50;0.50;;;23.40;98.30;;;;;;5035531;28;20219;-81
2023/07/22 09:20:09;;;;;;;1.40;0.80;;;23.40;99.00;;;;;;5035475;28;20675;-81
2023/07/22 09:22:37;;;;;;;0.90;0.70;;;23.40;98.60;;;;;;5036227;28;20203;-81
2023/07/22 09:25:15;;;;;;;0.80;0.67;;;23.50;99.10;;;;;;5035758;28;20246;-81
2023/07/22 09:27:41;;;;;;;0.60;0.60;;;23.70;97.60;;;;;;5035404;28;20180;-81
2023/07/22 09:30:22;;;;;;;2.45;0.55;;;23.90;97.80;;;;;;5035363;28;20206;-81
2023/07/22 09:32:49;;;;;;;0.60;0.60;;;24.00;97.20;;;;;;5036091;28;20203;-81
2023/07/22 09:35:16;;;;;;;0.47;0.40;;;24.00;97.10;;;;;;5034989;28;20207;-81
2023/07/22 09:37:44;;;;;;;0.55;0.55;;;24.00;96.30;;;;;;5034444;28;20224;-81
2023/07/22 09:40:19;;;;;;;0.50;0.50;;;23.90;96.80;;;;;;5035111;28;20203;-81
2023/07/22 09:42:50;;;;;;;0.40;0.40;;;23.90;96.40;;;;;;5034911;28;20195;-81
2023/07/22 09:45:17;;;;;;;0.57;0.50;;;24.00;96.30;;;;;;5035154;28;20183;-81
2023/07/22 09:47:45;;;;;;;0.68;0.50;;;23.90;96.40;;;;;;5035040;28;20629;-81
2023/07/22 09:50:15;;;;;;;0.70;0.43;;;24.00;95.10;;;;;;5034957;28;20199;-81
2023/07/22 09:52:48;;;;;;;0.50;0.50;;;24.00;96.70;;;;;;5034918;28;20204;-80
2023/07/22 09:55:17;;;;;;;0.53;0.53;;;24.00;95.70;;;;;;5034983;28;20187;-81
2023/07/22 09:57:46;;;;;;;0.60;0.60;;;24.20;95.20;;;;;;5034873;28;20269;-81
2023/07/22 10:00:15;;;;;;;0.80;0.60;;;24.70;94.90;;;;;;5034951;28;20206;-81
2023/07/22 10:02:44;;;;;;;0.63;0.60;;;25.10;95.00;;;;;;5034450;28;20733;-80
2023/07/22 10:05:14;;;;;;;0.63;0.63;;;25.20;93.00;;;;;;5034726;28;20208;-82
2023/07/22 10:07:45;;;;;;;0.88;0.60;;;25.20;94.00;;;;;;5035268;28;20187;-81
2023/07/22 10:10:16;;;;;;;0.60;0.60;;;24.90;93.60;;;;;;5034328;28;20656;-81
2023/07/22 10:12:43;;;;;;;1.05;0.77;;;24.80;93.80;;;;;;5034276;28;20191;-81
2023/07/22 10:15:11;;;;;;;0.60;0.57;;;24.70;94.50;;;;;;5034613;28;20192;-81
2023/07/22 10:17:38;;;;;;;0.70;0.70;;;24.70;94.90;;;;;;5034139;28;20219;-81
2023/07/22 10:20:07;;;;;;;0.60;0.40;;;24.50;94.00;;;;;;5034027;28;20187;-82
2023/07/22 10:22:36;;;;;;;0.60;0.55;;;24.40;94.30;;;;;;5034412;28;20208;-81
2023/07/22 10:25:06;;;;;;;0.60;0.60;;;24.30;95.00;;;;;;5034128;28;20293;-81
2023/07/22 10:27:35;;;;;;;0.82;0.60;;;24.30;95.40;;;;;;5034374;28;20250;-81
2023/07/22 10:30:03;;;;;;;0.75;0.60;;;24.30;95.70;;;;;;5033954;28;20215;-81
2023/07/22 10:32:34;;;;;;;4.70;0.60;;;24.40;94.50;;;;;;5034158;28;20199;-81
2023/07/22 10:35:01;;;;;;;1.10;0.63;;;24.50;95.20;;;;;;5034136;28;20211;-81
2023/07/22 10:37:32;;;;;;;1.08;0.57;;;24.60;94.80;;;;;;5033950;28;20639;-82
2023/07/22 10:40:01;;;;;;;0.75;0.75;;;24.70;94.70;;;;;;5034112;28;20191;-81
2023/07/22 10:42:28;;;;;;;0.60;0.52;;;24.70;93.40;;;;;;5033892;28;20498;-81
2023/07/22 10:45:01;;;;;;;0.50;0.50;;;24.60;94.00;;;;;;5033929;28;20208;-81
2023/07/22 10:47:36;;;;;;;1.02;0.60;;;24.50;94.00;;;;;;5033957;28;20199;-81
2023/07/22 10:50:10;;;;;;;0.60;0.60;;;24.40;93.50;;;;;;5033913;28;20207;-79
2023/07/22 10:52:43;;;;;;;1.25;0.50;;;24.10;93.10;;;;;;5036823;28;20203;-79
2023/07/22 10:55:17;;;;;;;0.75;0.75;;;24.00;93.20;;;;;;5036521;28;20191;-79
2023/07/22 10:57:52;;;;;;;2.80;0.85;;;23.90;93.60;;;;;;5036923;28;20207;-80
2023/07/22 11:00:21;;;;;;;1.20;0.68;;;23.80;93.70;;;;;;5034762;28;20231;-81
2023/07/22 11:03:08;;;;;;;0.60;0.60;;;23.70;94.50;;;;;;5033912;28;20207;-81
2023/07/22 11:05:49;;;;;;;0.80;0.68;;;23.70;95.40;;;;;;5033718;28;20559;-81
2023/07/22 11:08:16;;;;;;;1.17;0.50;;;23.60;94.80;;;;;;5033642;28;20226;-81
2023/07/22 11:10:54;;;;;;;0.70;0.50;;;23.60;96.10;;;;;;5033275;28;20220;-81
2023/07/22 11:13:28;;;;;;;2.17;0.75;;;23.60;96.60;;;;;;5033558;28;20188;-81
2023/07/22 11:15:58;;;;;;;0.87;0.80;;;23.70;96.00;;;;;;5033771;28;20627;-81
2023/07/22 11:18:37;;;;;;;0.95;0.50;;;24.00;95.30;;;;;;5034148;28;20219;-80
2023/07/22 11:21:07;;;;;;;1.65;0.60;;;24.30;94.70;;;;;;5033138;28;20229;-81
2023/07/22 11:23:34;;;;;;;1.48;0.55;;;24.50;94.40;;;;;;5033419;28;20195;-81
2023/07/22 11:26:01;;;;;;;0.65;0.65;;;24.50;93.60;;;;;;5033064;28;20242;-82
2023/07/22 11:28:28;;;;;;;0.98;0.77;;;24.40;93.80;;;;;;5033356;28;20203;-81
2023/07/22 11:30:58;;;;;;;0.70;0.70;;;24.40;94.50;;;;;;5033304;28;20211;-81
2023/07/22 11:33:25;;;;;;;0.75;0.75;;;24.30;94.30;;;;;;5033272;28;20330;-81
2023/07/22 11:35:52;;;;;;;1.15;1.08;;;24.40;94.50;;;;;;5032958;28;20698;-81
2023/07/22 11:38:19;;;;;;;0.85;0.50;;;24.50;93.20;;;;;;5032907;28;20223;-80
2023/07/22 11:40:47;;;;;;;0.80;0.80;;;24.60;92.90;;;;;;5032887;28;20215;-80
2023/07/22 11:43:15;;;;;;;0.80;0.80;;;24.70;92.30;;;;;;5033208;28;20222;-81
2023/07/22 11:45:42;;;;;;;0.57;0.50;;;24.70;92.90;;;;;;5032959;28;20195;-82
2023/07/22 11:48:12;;;;;;;0.60;0.60;;;24.80;93.20;;;;;;5033408;28;20215;-82
2023/07/22 11:50:39;;;;;;;0.60;0.60;;;24.90;91.70;;;;;;5033147;28;20230;-83
2023/07/22 11:53:07;;;;;;;0.80;0.80;;;24.70;91.80;;;;;;5033097;28;20557;-82
2023/07/22 11:55:36;;;;;;;0.70;0.70;;;24.70;92.30;;;;;;5033082;28;20203;-82
2023/07/22 11:58:04;;;;;;;0.65;0.65;;;24.90;92.40;;;;;;5033030;28;20265;-82
2023/07/22 12:00:31;;;;;;;1.40;0.60;;;25.10;92.10;;;;;;5034046;28;20227;-82
2023/07/22 12:02:58;;;;;;;1.08;0.70;;;25.10;91.90;;;;;;5037042;28;20572;-82
2023/07/22 12:05:27;;;;;;;1.30;0.60;;;25.10;91.40;;;;;;5036904;28;20234;-82
2023/07/22 12:07:53;;;;;;;0.70;0.52;;;25.00;91.80;;;;;;5036964;28;20203;-82
2023/07/22 12:10:20;;;;;;;1.65;0.70;;;24.90;91.80;;;;;;5036621;28;20215;-81
2023/07/22 12:12:49;;;;;;;0.63;0.63;;;24.80;90.90;;;;;;5036856;28;20208;-81
2023/07/22 12:15:17;;;;;;;0.90;0.57;;;24.70;91.40;;;;;;5036824;28;20199;-82
2023/07/22 12:17:44;;;;;;;0.80;0.70;;;24.70;91.30;;;;;;5036384;28;20675;-81
2023/07/22 12:20:12;;;;;;;0.85;0.73;;;24.60;92.20;;;;;;5036819;28;20210;-82
2023/07/22 12:22:40;;;;;;;0.68;0.60;;;24.50;91.60;;;;;;5036924;28;20211;-82
2023/07/22 12:25:08;;;;;;;1.50;0.90;;;24.30;91.80;;;;;;5036223;28;20612;-82
2023/07/22 12:27:35;;;;;;;0.65;0.65;;;24.30;92.30;;;;;;5036621;28;20191;-82
2023/07/22 12:30:02;;;;;;;0.82;0.52;;;24.30;91.60;;;;;;5036515;28;20208;-82
2023/07/22 12:32:29;;;;;;;1.10;1.00;;;24.30;90.90;;;;;;5036496;28;20211;-82
2023/07/22 12:34:56;;;;;;;0.70;0.70;;;24.40;91.50;;;;;;5036734;28;20217;-82
2023/07/22 12:37:23;;;;;;;0.80;0.52;;;24.50;90.60;;;;;;5036380;28;20195;-81
2023/07/22 12:39:51;;;;;;;0.68;0.60;;;24.60;91.20;;;;;;5036283;28;20233;-81
2023/07/22 12:42:17;;;;;;;0.60;0.60;;;24.70;91.40;;;;;;5036160;28;20224;-81
2023/07/22 12:44:44;;;;;;;0.60;0.60;;;24.70;90.70;;;;;;5036264;28;20199;-81
2023/07/22 12:47:11;;;;;;;0.73;0.73;;;24.70;90.70;;;;;;5036509;28;20227;-82
2023/07/22 12:49:38;;;;;;;0.82;0.60;;;24.70;90.90;;;;;;5035909;28;20200;-81
2023/07/22 12:52:08;;;;;;;1.55;0.70;;;24.60;88.80;;;;;;5035828;28;20225;-82